Time;durP1;ratioP1;P1;durP2;ratioP2;P2;SDS_P1;SDS_P2;PMS_P1;PMS_P2;Temp;Humidity;BMP_temperature;BMP_pressure;BME280_temperature;BME280_humidity;BME280_pressure;Samples;Min_cycle;Max_cycle;Signal;HPM_P1;HPM_P2
2020/12/05 00:00:34;;;;;;;1.73;1.63;;;;;;;18.02;49.89;98588.56;5069705;28;20208;-68
2020/12/05 00:03:00;;;;;;;1.90;1.80;;;;;;;18.00;49.68;98582.53;5066028;28;20250;-73
2020/12/05 00:05:26;;;;;;;2.27;1.60;;;;;;;17.98;49.50;98590.03;5072838;28;20666;-73
2020/12/05 00:07:52;;;;;;;1.90;1.80;;;;;;;17.96;49.67;98583.97;5066584;28;20203;-72
2020/12/05 00:10:18;;;;;;;1.80;1.70;;;;;;;17.95;49.40;98587.75;5069822;28;20248;-72
2020/12/05 00:12:44;;;;;;;2.13;1.93;;;;;;;17.93;49.98;98584.41;5077483;28;20266;-69
2020/12/05 00:15:10;;;;;;;2.17;1.70;;;;;;;17.96;49.57;98593.97;5077550;28;20244;-68
2020/12/05 00:17:36;;;;;;;2.27;1.70;;;;;;;17.96;49.42;98589.41;5037757;28;20295;-68
2020/12/05 00:20:03;;;;;;;1.97;1.87;;;;;;;17.97;49.33;98593.75;5057028;28;20179;-68
2020/12/05 00:22:30;;;;;;;1.80;1.70;;;;;;;18.00;49.48;98590.66;5077797;28;20183;-68
2020/12/05 00:24:56;;;;;;;1.70;1.60;;;;;;;18.00;49.66;98596.06;5078705;28;20234;-68
2020/12/05 00:27:22;;;;;;;1.70;1.60;;;;;;;18.03;49.54;98595.63;5051144;28;20198;-68
2020/12/05 00:29:48;;;;;;;2.10;1.90;;;;;;;18.05;50.00;98598.94;5069452;28;20198;-68
2020/12/05 00:32:15;;;;;;;1.90;1.80;;;;;;;18.09;50.04;98594.75;5061148;28;20264;-68
2020/12/05 00:34:41;;;;;;;1.80;1.70;;;;;;;18.12;49.58;98592.66;5043739;28;20214;-68
2020/12/05 00:37:08;;;;;;;1.63;1.53;;;;;;;18.14;50.07;98585.16;5075499;28;20648;-73
2020/12/05 00:39:34;;;;;;;1.80;1.70;;;;;;;18.16;49.85;98588.47;5053283;28;20195;-68
2020/12/05 00:42:00;;;;;;;1.70;1.60;;;;;;;18.18;49.92;98587.19;5072326;28;20184;-67
2020/12/05 00:44:26;;;;;;;1.80;1.63;;;;;;;18.17;49.44;98590.94;5073560;28;20260;-67
2020/12/05 00:46:52;;;;;;;1.77;1.67;;;;;;;18.19;50.12;98593.44;5057101;28;20240;-68
2020/12/05 00:49:18;;;;;;;1.93;1.83;;;;;;;18.19;49.89;98588.03;5074284;28;20206;-68
2020/12/05 00:51:47;;;;;;;2.10;2.00;;;;;;;18.20;49.45;98592.38;5052209;28;20191;-68
2020/12/05 00:54:14;;;;;;;1.80;1.70;;;;;;;18.17;49.50;98587.41;5044973;28;20207;-69
2020/12/05 00:56:40;;;;;;;2.07;1.87;;;;;;;18.18;49.87;98589.06;5052475;28;20616;-68
2020/12/05 00:59:06;;;;;;;2.13;1.97;;;;;;;18.18;49.83;98594.50;5057079;28;20238;-69
2020/12/05 01:01:32;;;;;;;1.70;1.60;;;;;;;18.16;49.66;98583.88;5073226;28;20262;-68
2020/12/05 01:03:58;;;;;;;1.80;1.70;;;;;;;18.16;49.75;98583.88;5067300;28;20190;-68
2020/12/05 01:06:25;;;;;;;2.00;1.80;;;;;;;18.13;49.30;98589.72;5071432;28;20187;-68
2020/12/05 01:08:51;;;;;;;1.90;1.80;;;;;;;18.14;49.44;98599.50;5052892;28;20631;-68
2020/12/05 01:11:18;;;;;;;2.10;1.70;;;;;;;18.12;49.65;98607.03;5070243;28;20265;-73
2020/12/05 01:13:45;;;;;;;1.70;1.60;;;;;;;18.13;49.36;98605.16;5062440;28;20216;-68
2020/12/05 01:16:12;;;;;;;1.83;1.73;;;;;;;18.09;49.61;98600.16;5073490;28;20182;-68
2020/12/05 01:18:39;;;;;;;1.80;1.70;;;;;;;18.08;49.20;98601.22;5049288;28;20218;-68
2020/12/05 01:21:08;;;;;;;1.70;1.60;;;;;;;18.07;49.81;98609.56;5074120;28;20184;-68
2020/12/05 01:23:34;;;;;;;1.80;1.70;;;;;;;18.02;49.58;98610.22;5073594;28;20178;-69
2020/12/05 01:26:00;;;;;;;2.00;1.90;;;;;;;18.03;49.39;98605.63;5076644;28;20278;-69
2020/12/05 01:28:26;;;;;;;2.13;1.93;;;;;;;18.01;49.47;98602.31;5061050;28;20234;-69
2020/12/05 01:30:52;;;;;;;1.90;1.80;;;;;;;17.98;49.87;98603.56;5073341;28;20263;-73
2020/12/05 01:33:18;;;;;;;1.83;1.73;;;;;;;17.97;49.75;98604.59;5045224;28;20283;-74
2020/12/05 01:35:44;;;;;;;2.10;1.90;;;;;;;17.97;49.68;98604.59;5066679;28;20552;-74
2020/12/05 01:38:10;;;;;;;1.80;1.70;;;;;;;17.99;49.95;98610.66;5057072;28;20213;-69
2020/12/05 01:40:36;;;;;;;1.90;1.80;;;;;;;18.01;49.61;98619.38;5067733;28;20184;-69
2020/12/05 01:43:02;;;;;;;1.90;1.80;;;;;;;18.03;49.54;98617.28;5072415;28;20183;-69
2020/12/05 01:45:28;;;;;;;1.80;1.70;;;;;;;18.07;49.48;98618.50;5066509;28;20346;-70
2020/12/05 01:47:55;;;;;;;1.60;1.50;;;;;;;18.12;49.37;98622.44;5076401;28;20307;-73
2020/12/05 01:50:21;;;;;;;1.70;1.60;;;;;;;18.19;49.16;98628.63;5054836;28;20685;-73
2020/12/05 01:52:47;;;;;;;1.83;1.73;;;;;;;18.24;49.17;98640.50;5064815;28;20176;-73
2020/12/05 01:55:13;;;;;;;2.20;2.00;;;;;;;18.30;49.35;98638.81;5058862;28;20212;-74
2020/12/05 01:57:39;;;;;;;1.60;1.50;;;;;;;18.35;49.72;98642.50;5074443;28;20215;-73
2020/12/05 02:00:06;;;;;;;1.70;1.60;;;;;;;18.40;49.78;98641.84;5059576;28;20607;-73
2020/12/05 02:02:32;;;;;;;1.87;1.77;;;;;;;18.45;49.36;98642.03;5068586;28;20181;-73
2020/12/05 02:05:04;;;;;;;1.97;1.80;;;;;;;18.48;49.27;98641.63;5081822;28;20754;-74
2020/12/05 02:07:46;;;;;;;1.87;1.77;;;;;;;18.53;49.33;98643.66;5075511;28;20204;-73
2020/12/05 02:10:15;;;;;;;1.83;1.73;;;;;;;18.57;49.33;98648.41;5070125;28;20180;-73
2020/12/05 02:12:45;;;;;;;1.80;1.70;;;;;;;18.59;49.46;98651.75;5041457;28;20186;-73
2020/12/05 02:15:14;;;;;;;1.80;1.70;;;;;;;18.61;49.40;98654.22;5069317;28;20211;-74
2020/12/05 02:17:43;;;;;;;1.90;1.80;;;;;;;18.61;49.43;98654.22;5050594;28;20200;-74
2020/12/05 02:20:09;;;;;;;1.93;1.83;;;;;;;18.63;49.16;98649.44;5048608;28;20183;-74
2020/12/05 02:22:42;;;;;;;1.70;1.60;;;;;;;18.64;49.49;98646.53;5037675;28;20238;-74
2020/12/05 02:25:09;;;;;;;1.70;1.60;;;;;;;18.61;48.91;98640.69;5076218;28;20179;-74
2020/12/05 02:27:35;;;;;;;1.60;1.50;;;;;;;18.61;49.05;98646.94;5037951;28;20204;-73
2020/12/05 02:30:02;;;;;;;1.90;1.80;;;;;;;18.61;49.30;98646.94;5051936;28;20236;-73
2020/12/05 02:32:28;;;;;;;1.90;1.80;;;;;;;18.60;49.35;98658.81;5069720;28;20179;-70
2020/12/05 02:34:54;;;;;;;1.90;1.80;;;;;;;18.59;49.23;98662.56;5073107;28;20725;-69
2020/12/05 02:37:24;;;;;;;1.90;1.80;;;;;;;18.55;49.26;98663.25;5068917;28;20321;-69
2020/12/05 02:39:50;;;;;;;1.80;1.70;;;;;;;18.54;49.01;98667.81;5066205;28;20261;-69
2020/12/05 02:42:16;;;;;;;2.10;1.90;;;;;;;18.52;48.91;98666.38;5075868;28;20543;-74
2020/12/05 02:44:49;;;;;;;1.90;1.80;;;;;;;18.49;49.25;98672.25;5067853;28;20172;-74
2020/12/05 02:47:16;;;;;;;2.10;2.00;;;;;;;18.46;48.96;98673.50;5062691;28;20241;-74
2020/12/05 02:49:42;;;;;;;2.13;1.93;;;;;;;18.43;49.18;98673.91;5059526;28;20696;-69
2020/12/05 02:52:08;;;;;;;1.77;1.67;;;;;;;18.39;49.19;98667.28;5051419;28;20639;-69
2020/12/05 02:54:34;;;;;;;1.90;1.80;;;;;;;18.37;49.09;98661.25;5066620;28;20265;-69
2020/12/05 02:57:00;;;;;;;1.73;1.63;;;;;;;18.34;49.22;98664.41;5060290;28;20273;-69
2020/12/05 02:59:27;;;;;;;1.83;1.73;;;;;;;18.29;48.83;98665.06;5077317;28;20198;-69
2020/12/05 03:01:53;;;;;;;1.67;1.57;;;;;;;18.26;48.88;98661.94;5057843;28;20185;-69
2020/12/05 03:04:19;;;;;;;2.00;1.90;;;;;;;18.23;48.93;98656.97;5075129;28;20191;-69
2020/12/05 03:06:45;;;;;;;2.10;1.90;;;;;;;18.19;48.95;98658.44;5055675;28;20616;-68
2020/12/05 03:09:12;;;;;;;1.97;1.87;;;;;;;18.20;48.92;98655.50;5070332;28;20283;-69
2020/12/05 03:11:38;;;;;;;2.17;2.07;;;;;;;18.17;48.93;98655.94;5077640;28;20206;-68
2020/12/05 03:14:04;;;;;;;2.10;1.90;;;;;;;18.13;48.88;98659.28;5069587;28;20212;-69
2020/12/05 03:16:30;;;;;;;1.93;1.83;;;;;;;18.07;49.21;98651.00;5084691;28;20175;-74
2020/12/05 03:18:56;;;;;;;1.97;1.80;;;;;;;18.05;49.32;98658.50;5070156;28;20280;-74
2020/12/05 03:21:22;;;;;;;2.07;1.90;;;;;;;18.05;48.97;98658.50;5076619;28;20194;-74
2020/12/05 03:23:48;;;;;;;1.80;1.70;;;;;;;18.03;49.11;98655.19;5052661;28;20310;-74
2020/12/05 03:26:14;;;;;;;1.80;1.70;;;;;;;18.02;48.85;98658.94;5067358;28;20180;-74
2020/12/05 03:28:40;;;;;;;1.90;1.80;;;;;;;18.00;48.88;98663.75;5039781;28;20201;-74
2020/12/05 03:31:07;;;;;;;1.70;1.60;;;;;;;18.01;49.56;98668.09;5079146;28;20200;-69
2020/12/05 03:33:36;;;;;;;1.87;1.73;;;;;;;18.02;49.09;98667.06;5044979;28;20612;-69
2020/12/05 03:36:02;;;;;;;1.70;1.60;;;;;;;18.08;49.15;98674.31;5060160;28;20179;-69
2020/12/05 03:38:28;;;;;;;1.80;1.70;;;;;;;18.12;49.70;98679.28;5068958;28;20230;-69
2020/12/05 03:40:54;;;;;;;1.70;1.60;;;;;;;18.19;49.27;98688.22;5067886;28;20183;-69
2020/12/05 03:43:20;;;;;;;1.70;1.60;;;;;;;18.25;49.79;98692.78;5078720;28;20631;-69
2020/12/05 03:45:46;;;;;;;1.70;1.60;;;;;;;18.29;49.73;98692.13;5054563;28;20257;-69
2020/12/05 03:48:12;;;;;;;2.00;1.80;;;;;;;18.35;49.53;98696.69;5071734;28;20203;-69
2020/12/05 03:50:42;;;;;;;1.80;1.70;;;;;;;18.37;49.51;98697.28;5058206;28;20522;-68
2020/12/05 03:53:08;;;;;;;1.90;1.80;;;;;;;18.40;49.15;98696.03;5063207;28;20704;-68
2020/12/05 03:55:34;;;;;;;1.57;1.47;;;;;;;18.42;49.43;98693.94;5070870;28;20269;-68
2020/12/05 03:58:01;;;;;;;1.77;1.67;;;;;;;18.44;49.46;98699.97;5076824;28;20259;-68
2020/12/05 04:00:28;;;;;;;1.70;1.60;;;;;;;18.45;48.80;98703.50;5062706;28;20682;-68
2020/12/05 04:02:54;;;;;;;1.70;1.60;;;;;;;18.47;49.32;98706.84;5073844;28;20185;-68
2020/12/05 04:05:20;;;;;;;1.50;1.40;;;;;;;18.48;49.30;98709.34;5076331;28;20315;-68
2020/12/05 04:07:46;;;;;;;1.70;1.60;;;;;;;18.48;49.11;98717.47;5065684;28;20208;-68
2020/12/05 04:10:12;;;;;;;1.50;1.40;;;;;;;18.46;49.22;98716.84;5075898;28;20187;-68
2020/12/05 04:12:38;;;;;;;1.93;1.83;;;;;;;18.45;48.98;98723.28;5058486;28;20542;-68
2020/12/05 04:15:04;;;;;;;1.53;1.43;;;;;;;18.46;48.83;98724.16;5054609;28;20234;-73
2020/12/05 04:17:30;;;;;;;1.83;1.73;;;;;;;18.43;48.87;98719.97;5060438;28;20276;-69
2020/12/05 04:19:56;;;;;;;1.67;1.57;;;;;;;18.40;48.70;98720.41;5073528;28;20242;-69
2020/12/05 04:22:22;;;;;;;1.80;1.70;;;;;;;18.38;49.06;98725.22;5078771;28;20207;-69
2020/12/05 04:24:49;;;;;;;1.80;1.70;;;;;;;18.33;48.87;98730.44;5077207;28;20184;-68
2020/12/05 04:27:15;;;;;;;1.70;1.60;;;;;;;18.31;48.80;98729.84;5059785;28;20203;-68
2020/12/05 04:29:41;;;;;;;1.73;1.63;;;;;;;18.28;48.77;98731.09;5065055;28;20192;-68
2020/12/05 04:32:07;;;;;;;1.87;1.77;;;;;;;18.25;48.81;98730.69;5060055;28;20502;-73
2020/12/05 04:34:33;;;;;;;1.93;1.83;;;;;;;18.22;48.67;98731.97;5053509;28;20215;-74
2020/12/05 04:36:59;;;;;;;1.90;1.80;;;;;;;18.18;49.12;98729.88;5079487;28;20186;-74
2020/12/05 04:39:25;;;;;;;1.77;1.67;;;;;;;18.16;48.85;98737.38;5071543;28;20207;-74
2020/12/05 04:41:51;;;;;;;1.90;1.80;;;;;;;18.13;49.16;98729.69;5071441;28;20230;-74
2020/12/05 04:44:17;;;;;;;1.80;1.70;;;;;;;18.12;48.97;98728.03;5077943;28;20183;-74
2020/12/05 04:46:43;;;;;;;1.77;1.67;;;;;;;18.08;49.03;98738.47;5057272;28;20192;-74
2020/12/05 04:49:09;;;;;;;1.90;1.80;;;;;;;18.06;48.90;98737.84;5066791;28;20203;-74
2020/12/05 04:51:37;;;;;;;1.70;1.60;;;;;;;18.05;48.74;98742.44;5074057;28;20244;-74
2020/12/05 04:54:07;;;;;;;1.50;1.40;;;;;;;18.06;49.00;98746.78;5066644;28;20197;-74
2020/12/05 04:56:37;;;;;;;1.60;1.50;;;;;;;18.11;49.24;98754.28;5070893;28;20179;-72
2020/12/05 04:59:07;;;;;;;1.20;1.20;;;;;;;18.14;49.04;98750.31;5053218;28;20283;-72
2020/12/05 05:01:37;;;;;;;1.90;1.80;;;;;;;18.19;49.43;98755.91;5055649;28;20183;-67
2020/12/05 05:04:04;;;;;;;1.70;1.60;;;;;;;18.24;49.16;98754.25;5045133;28;20194;-67
2020/12/05 05:06:30;;;;;;;1.70;1.60;;;;;;;18.31;48.99;98754.22;5061743;28;20224;-67
2020/12/05 05:08:56;;;;;;;1.70;1.60;;;;;;;18.35;49.39;98760.84;5068215;28;20207;-67
2020/12/05 05:11:26;;;;;;;1.50;1.40;;;;;;;18.41;49.44;98762.69;5057968;28;20192;-68
2020/12/05 05:13:58;;;;;;;1.60;1.50;;;;;;;18.47;49.07;98761.84;5053792;28;20207;-68
2020/12/05 05:16:27;;;;;;;1.53;1.43;;;;;;;18.51;49.41;98759.53;5074230;28;20211;-68
2020/12/05 05:18:53;;;;;;;1.70;1.60;;;;;;;18.53;48.88;98760.16;5045190;28;20261;-68
2020/12/05 05:21:38;;;;;;;1.80;1.70;;;;;;;18.55;48.99;98760.78;5058176;28;20184;-68
2020/12/05 05:24:23;;;;;;;1.93;1.70;;;;;;;18.57;49.29;98750.53;5055269;28;20180;-68
2020/12/05 05:27:08;;;;;;;1.67;1.57;;;;;;;18.57;49.14;98753.25;5065418;28;20180;-68
2020/12/05 05:29:43;;;;;;;1.60;1.50;;;;;;;18.56;48.67;98752.44;5056260;28;20180;-74
2020/12/05 05:32:17;;;;;;;2.13;1.80;;;;;;;18.57;48.78;98761.38;5055407;28;20187;-74
2020/12/05 05:34:44;;;;;;;1.53;1.43;;;;;;;18.56;48.89;98767.84;5063577;28;20198;-74
2020/12/05 05:37:14;;;;;;;1.50;1.40;;;;;;;18.55;48.56;98783.28;5057981;28;20589;-74
2020/12/05 05:39:44;;;;;;;1.50;1.40;;;;;;;18.54;48.75;98792.44;5076285;28;20283;-74
2020/12/05 05:42:11;;;;;;;1.70;1.60;;;;;;;18.51;48.67;98792.88;5070649;28;20216;-74
2020/12/05 05:44:37;;;;;;;1.70;1.60;;;;;;;18.49;48.92;98800.41;5050753;28;20184;-74
2020/12/05 05:47:03;;;;;;;1.70;1.60;;;;;;;18.47;48.39;98797.06;5067947;28;20525;-69
2020/12/05 05:49:30;;;;;;;1.87;1.77;;;;;;;18.45;48.56;98795.59;5053958;28;20662;-68
2020/12/05 05:51:58;;;;;;;1.77;1.67;;;;;;;18.42;48.98;98796.88;5058316;28;20349;-68
2020/12/05 05:54:25;;;;;;;1.50;1.40;;;;;;;18.40;48.54;98807.09;5039890;28;20240;-68
2020/12/05 05:56:55;;;;;;;1.73;1.50;;;;;;;18.38;48.71;98820.00;5053487;28;20219;-68
2020/12/05 05:59:22;;;;;;;2.00;1.73;;;;;;;18.34;48.55;98818.78;5072102;28;20194;-68
2020/12/05 06:01:50;;;;;;;1.70;1.60;;;;;;;18.31;48.81;98830.88;5068828;28;20675;-68
2020/12/05 06:04:22;;;;;;;1.83;1.73;;;;;;;18.27;49.01;98831.50;5074342;28;20181;-68
2020/12/05 06:06:48;;;;;;;1.70;1.60;;;;;;;18.24;48.85;98830.06;5057231;28;20180;-68
2020/12/05 06:09:14;;;;;;;1.63;1.53;;;;;;;18.19;49.01;98832.56;5047639;28;20230;-68
2020/12/05 06:11:40;;;;;;;1.90;1.70;;;;;;;18.14;48.94;98835.06;5072954;28;20187;-68
2020/12/05 06:14:06;;;;;;;1.70;1.60;;;;;;;18.12;48.84;98844.44;5071003;28;20212;-73
2020/12/05 06:16:32;;;;;;;1.60;1.50;;;;;;;18.09;48.70;98837.59;5063245;28;20252;-73
2020/12/05 06:18:58;;;;;;;1.60;1.50;;;;;;;18.10;48.74;98850.91;5073886;28;20203;-74
2020/12/05 06:21:31;;;;;;;1.60;1.50;;;;;;;18.09;48.55;98860.06;5043193;28;20227;-74
2020/12/05 06:24:03;;;;;;;1.77;1.67;;;;;;;18.07;48.61;98862.16;5072036;28;20212;-69
2020/12/05 06:26:30;;;;;;;1.70;1.60;;;;;;;18.08;48.86;98863.81;5069976;28;20187;-69
2020/12/05 06:28:57;;;;;;;1.70;1.60;;;;;;;18.12;48.94;98874.22;5064873;28;20275;-73
2020/12/05 06:31:40;;;;;;;1.67;1.57;;;;;;;18.16;49.39;98872.75;5070312;28;20180;-69
2020/12/05 06:34:06;;;;;;;1.50;1.40;;;;;;;18.24;49.00;98876.09;5076264;28;20199;-68
2020/12/05 06:36:32;;;;;;;1.67;1.57;;;;;;;18.31;49.31;98895.03;5060727;28;20229;-68
2020/12/05 06:39:16;;;;;;;1.67;1.57;;;;;;;18.36;49.16;98887.94;5066367;28;20552;-68
2020/12/05 06:41:49;;;;;;;1.70;1.60;;;;;;;18.43;49.46;98896.03;5045800;28;20191;-68
2020/12/05 06:44:18;;;;;;;1.50;1.40;;;;;;;18.48;49.22;98900.84;5061852;28;20237;-74
2020/12/05 06:46:57;;;;;;;1.40;1.30;;;;;;;18.51;49.17;98906.69;5074885;28;20180;-74
2020/12/05 06:49:39;;;;;;;1.60;1.50;;;;;;;18.55;48.77;98916.03;5045323;28;20200;-74
2020/12/05 06:52:26;;;;;;;1.60;1.50;;;;;;;18.57;49.29;98924.78;5055212;28;20183;-73
2020/12/05 06:55:11;;;;;;;1.50;1.40;;;;;;;18.59;48.74;98916.44;5075792;28;20221;-73
2020/12/05 06:57:37;;;;;;;1.50;1.40;;;;;;;18.59;48.58;98928.13;5075404;28;20226;-69
2020/12/05 07:00:13;;;;;;;1.40;1.30;;;;;;;18.59;48.60;98930.81;5076585;28;20179;-68
2020/12/05 07:02:39;;;;;;;1.50;1.40;;;;;;;18.59;48.74;98933.53;5067928;28;20191;-73
2020/12/05 07:05:21;;;;;;;1.63;1.53;;;;;;;18.57;48.79;98938.34;5067488;28;20175;-68
2020/12/05 07:07:50;;;;;;;1.67;1.57;;;;;;;18.57;49.02;98951.06;5073903;28;20203;-68
2020/12/05 07:10:17;;;;;;;1.50;1.40;;;;;;;18.55;48.61;98951.25;5059216;28;20193;-68
2020/12/05 07:12:43;;;;;;;1.40;1.30;;;;;;;18.55;48.61;98947.72;5077090;28;20191;-72
2020/12/05 07:15:25;;;;;;;1.37;1.27;;;;;;;18.52;48.64;98956.28;5044194;28;20226;-73
2020/12/05 07:17:52;;;;;;;1.47;1.37;;;;;;;18.50;48.72;98963.78;5055260;28;20200;-68
2020/12/05 07:20:18;;;;;;;1.90;1.80;;;;;;;18.47;48.83;98962.31;5038806;28;20195;-69
2020/12/05 07:22:46;;;;;;;1.30;1.30;;;;;;;18.43;48.84;98958.34;5068166;28;20249;-69
2020/12/05 07:25:12;;;;;;;1.57;1.47;;;;;;;18.42;48.56;98962.94;5060241;28;20694;-69
2020/12/05 07:27:38;;;;;;;1.57;1.47;;;;;;;18.41;48.77;98965.84;5059529;28;20195;-73
2020/12/05 07:30:05;;;;;;;1.33;1.23;;;;;;;18.35;48.46;98972.94;5047650;28;20176;-73
2020/12/05 07:32:32;;;;;;;1.40;1.30;;;;;;;18.32;48.43;98973.38;5047299;28;20607;-73
2020/12/05 07:34:59;;;;;;;1.57;1.47;;;;;;;18.28;48.36;98972.13;5047222;28;20208;-73
2020/12/05 07:37:28;;;;;;;1.60;1.50;;;;;;;18.23;48.60;98974.63;5074688;28;20646;-73
2020/12/05 07:39:55;;;;;;;1.57;1.47;;;;;;;18.18;48.84;98979.00;5081284;28;20618;-73
2020/12/05 07:42:21;;;;;;;1.50;1.40;;;;;;;18.14;48.51;98981.28;5060200;28;20191;-73
2020/12/05 07:44:48;;;;;;;1.40;1.30;;;;;;;18.13;48.47;98984.19;5053416;28;20219;-69
2020/12/05 07:47:20;;;;;;;1.50;1.40;;;;;;;18.14;48.54;98988.56;5064305;28;20720;-68
2020/12/05 07:49:53;;;;;;;1.27;1.20;;;;;;;18.12;48.67;98998.78;5070628;28;20714;-69
2020/12/05 07:52:20;;;;;;;1.47;1.37;;;;;;;18.10;49.23;99005.22;5049242;28;20237;-69
2020/12/05 07:55:06;;;;;;;1.30;1.20;;;;;;;18.10;49.21;99007.94;5076714;28;20715;-73
2020/12/05 07:57:36;;;;;;;1.57;1.47;;;;;;;18.12;49.33;99012.31;5067196;28;20291;-73
2020/12/05 08:00:09;;;;;;;1.43;1.33;;;;;;;18.17;49.31;99023.34;5053492;28;20239;-68
2020/12/05 08:02:35;;;;;;;1.20;1.10;;;;;;;18.27;49.36;99024.63;5042383;28;20188;-68
2020/12/05 08:05:26;;;;;;;1.50;1.40;;;;;;;18.34;48.91;99030.03;5051407;28;20176;-74
2020/12/05 08:08:02;;;;;;;1.47;1.27;;;;;;;18.38;49.18;99042.97;5050554;28;20238;-74
2020/12/05 08:10:30;;;;;;;1.27;1.20;;;;;;;18.43;48.81;99045.03;5044761;28;20237;-68
2020/12/05 08:13:17;;;;;;;1.30;1.20;;;;;;;18.49;49.26;99037.97;5080818;28;20179;-69
2020/12/05 08:15:44;;;;;;;1.43;1.33;;;;;;;18.51;49.28;99036.72;5075093;28;20306;-68
2020/12/05 08:18:10;;;;;;;1.40;1.30;;;;;;;18.55;49.20;99035.25;5073243;28;20648;-68
2020/12/05 08:20:44;;;;;;;1.30;1.20;;;;;;;18.56;48.99;99045.06;5065903;28;20538;-68
2020/12/05 08:23:27;;;;;;;1.37;1.20;;;;;;;18.58;49.10;99053.81;5062228;28;20535;-68
2020/12/05 08:26:14;;;;;;;1.50;1.40;;;;;;;18.58;48.87;99064.63;5058413;28;20282;-68
2020/12/05 08:28:43;;;;;;;1.30;1.20;;;;;;;18.58;48.83;99086.31;5031439;28;20234;-69
2020/12/05 08:31:11;;;;;;;1.40;1.30;;;;;;;18.59;48.88;99085.28;5063300;28;20195;-69
2020/12/05 08:33:49;;;;;;;1.30;1.20;;;;;;;18.58;48.49;99082.78;5051562;28;20318;-69
2020/12/05 08:36:34;;;;;;;1.27;1.17;;;;;;;18.55;48.35;99085.91;5039565;28;20251;-69
2020/12/05 08:39:07;;;;;;;1.23;1.13;;;;;;;18.52;48.52;99084.44;5057259;28;20204;-74
2020/12/05 08:41:50;;;;;;;1.33;1.23;;;;;;;18.50;48.33;99094.66;5062651;28;20187;-68
2020/12/05 08:44:17;;;;;;;1.50;1.40;;;;;;;18.47;48.43;99095.06;5042738;28;20187;-68
2020/12/05 08:46:43;;;;;;;1.40;1.30;;;;;;;18.45;48.40;99097.13;5070700;28;20264;-73
2020/12/05 08:49:17;;;;;;;1.87;1.40;;;;;;;18.42;48.61;99092.13;5068951;28;20206;-74
2020/12/05 08:51:52;;;;;;;1.10;1.10;;;;;;;18.40;48.92;99099.63;5042586;28;20222;-74
2020/12/05 08:54:19;;;;;;;1.63;1.53;;;;;;;18.36;48.76;99104.63;5052891;28;20215;-74
2020/12/05 08:56:45;;;;;;;1.30;1.20;;;;;;;18.32;48.78;99108.81;5064246;28;20262;-74
2020/12/05 08:59:11;;;;;;;1.53;1.43;;;;;;;18.31;48.44;99126.09;5056277;28;20200;-74
2020/12/05 09:01:44;;;;;;;1.37;1.27;;;;;;;18.26;48.75;99125.88;5054633;28;20264;-74
2020/12/05 09:04:13;;;;;;;1.47;1.37;;;;;;;18.22;48.27;99123.78;5079444;28;20175;-68
2020/12/05 09:06:39;;;;;;;1.33;1.17;;;;;;;18.20;48.62;99128.53;5061876;28;20344;-68
2020/12/05 09:09:06;;;;;;;1.40;1.30;;;;;;;18.14;48.67;99132.06;5044563;28;20231;-69
2020/12/05 09:11:32;;;;;;;1.50;1.40;;;;;;;18.13;48.51;99135.81;5035498;28;20204;-67
2020/12/05 09:13:58;;;;;;;3.93;3.40;;;;;;;18.09;47.16;99132.69;5034400;28;20227;-68
2020/12/05 09:16:34;;;;;;;6.90;4.87;;;;;;;17.92;43.18;99132.22;5061368;28;20202;-74
2020/12/05 09:19:00;;;;;;;6.40;4.50;;;;;;;17.73;41.71;99130.25;5053764;28;20207;-70
2020/12/05 09:21:26;;;;;;;5.67;4.43;;;;;;;17.59;41.37;99123.09;5037369;28;20282;-69
2020/12/05 09:23:59;;;;;;;5.03;4.13;;;;;;;17.47;41.90;99118.25;5053813;28;20244;-67
2020/12/05 09:26:25;;;;;;;4.93;4.13;;;;;;;17.50;43.50;99125.13;5070125;28;20684;-67
2020/12/05 09:28:55;;;;;;;5.33;4.10;;;;;;;17.55;44.18;99133.50;5070348;28;20235;-67
2020/12/05 09:31:21;;;;;;;4.60;3.50;;;;;;;17.63;44.33;99127.06;5033558;28;20728;-67
2020/12/05 09:33:47;;;;;;;3.90;3.30;;;;;;;17.72;44.40;99123.19;5050249;28;20237;-68
2020/12/05 09:36:13;;;;;;;3.30;3.00;;;;;;;17.81;44.58;99121.16;5035580;28;20184;-74
2020/12/05 09:38:39;;;;;;;4.17;2.93;;;;;;;17.88;44.88;99128.25;5070076;28;20214;-73
2020/12/05 09:41:05;;;;;;;3.47;2.70;;;;;;;17.97;45.32;99132.44;5071066;28;20187;-74
2020/12/05 09:43:31;;;;;;;4.13;2.53;;;;;;;18.04;45.09;99138.72;5070173;28;20183;-72
2020/12/05 09:45:57;;;;;;;2.70;2.50;;;;;;;18.13;45.34;99152.06;5065054;28;20876;-74
2020/12/05 09:48:24;;;;;;;3.27;2.50;;;;;;;18.20;45.73;99163.75;5083456;28;20282;-74
2020/12/05 09:50:50;;;;;;;3.07;2.40;;;;;;;18.29;45.48;99162.56;5053219;28;20207;-68
2020/12/05 09:53:16;;;;;;;2.77;2.40;;;;;;;18.35;45.44;99161.72;5069703;28;20646;-68
2020/12/05 09:55:42;;;;;;;2.50;2.10;;;;;;;18.42;45.54;99157.97;5064593;28;20220;-67
2020/12/05 09:58:08;;;;;;;3.37;2.40;;;;;;;18.49;46.01;99149.06;5049429;28;20204;-68
2020/12/05 10:00:34;;;;;;;4.10;2.20;;;;;;;18.57;46.21;99133.44;5032477;28;20196;-69
2020/12/05 10:03:00;;;;;;;2.63;1.93;;;;;;;18.65;45.92;99124.28;5049907;28;20195;-68
2020/12/05 10:05:26;;;;;;;3.10;2.20;;;;;;;18.72;45.96;99125.13;5050719;28;20442;-68
2020/12/05 10:07:52;;;;;;;2.40;2.13;;;;;;;18.80;46.10;99132.22;5033170;28;20196;-68
2020/12/05 10:10:18;;;;;;;2.37;2.07;;;;;;;18.86;46.14;99137.63;5049755;28;20329;-68
2020/12/05 10:12:44;;;;;;;2.17;1.80;;;;;;;18.92;46.26;99153.06;5049825;28;20242;-69
2020/12/05 10:15:14;;;;;;;2.07;1.50;;;;;;;19.00;46.39;99168.31;5050144;28;20315;-69
2020/12/05 10:17:41;;;;;;;2.87;1.70;;;;;;;19.07;46.26;99174.56;5036280;28;20214;-68
2020/12/05 10:20:07;;;;;;;1.83;1.60;;;;;;;19.12;46.29;99169.34;5070182;28;20198;-69
2020/12/05 10:22:33;;;;;;;1.97;1.67;;;;;;;19.18;46.50;99179.38;5052762;28;20244;-69
2020/12/05 10:25:00;;;;;;;1.77;1.67;;;;;;;19.24;46.53;99173.09;5069690;28;20179;-68
2020/12/05 10:27:26;;;;;;;1.77;1.63;;;;;;;19.29;46.54;99170.56;5069681;28;20207;-69
2020/12/05 10:29:52;;;;;;;1.97;1.67;;;;;;;19.36;46.65;99170.56;5052843;28;20241;-74
2020/12/05 10:32:18;;;;;;;1.80;1.50;;;;;;;19.41;46.39;99168.06;5070552;28;20278;-74
2020/12/05 10:34:44;;;;;;;1.80;1.40;;;;;;;19.46;46.44;99159.28;5053148;28;20720;-74
2020/12/05 10:37:10;;;;;;;1.63;1.50;;;;;;;19.52;46.49;99163.88;5036392;28;20679;-75
2020/12/05 10:39:36;;;;;;;1.60;1.50;;;;;;;19.57;46.43;99177.66;5069685;28;20179;-75
2020/12/05 10:42:03;;;;;;;1.60;1.50;;;;;;;19.62;46.43;99177.84;5052946;28;20187;-74
2020/12/05 10:44:29;;;;;;;1.83;1.60;;;;;;;19.48;46.53;99151.78;5052970;28;20635;-75
2020/12/05 10:46:55;;;;;;;1.60;1.50;;;;;;;19.70;46.67;99177.63;5069111;28;20201;-68
2020/12/05 10:49:22;;;;;;;2.03;1.50;;;;;;;19.76;46.65;99170.50;5068505;28;20233;-74
2020/12/05 10:51:48;;;;;;;1.57;1.47;;;;;;;19.80;47.01;99182.59;5053070;28;20211;-74
2020/12/05 10:54:15;;;;;;;1.67;1.50;;;;;;;19.84;46.41;99190.09;5070254;28;20499;-74
2020/12/05 10:56:41;;;;;;;1.70;1.50;;;;;;;19.90;46.66;99199.31;5052740;28;20241;-69
2020/12/05 10:59:07;;;;;;;1.60;1.50;;;;;;;19.94;46.73;99200.53;5052534;28;20203;-69
2020/12/05 11:01:33;;;;;;;1.47;1.37;;;;;;;19.98;46.50;99195.50;5052525;28;20237;-68
2020/12/05 11:03:59;;;;;;;1.73;1.40;;;;;;;20.01;46.63;99190.47;5069080;28;20213;-68
2020/12/05 11:06:26;;;;;;;1.50;1.40;;;;;;;20.05;46.72;99177.28;5052628;28;20600;-73
2020/12/05 11:08:52;;;;;;;1.30;1.20;;;;;;;20.07;46.47;99177.91;5070054;28;20207;-73
2020/12/05 11:11:18;;;;;;;1.10;1.10;;;;;;;20.09;46.60;99170.38;5054930;28;20182;-73
2020/12/05 11:13:44;;;;;;;1.73;1.40;;;;;;;20.12;46.55;99169.97;5056475;28;20184;-69
2020/12/05 11:16:10;;;;;;;1.77;1.40;;;;;;;20.13;46.58;99187.94;5073084;28;20184;-69
2020/12/05 11:18:36;;;;;;;1.30;1.20;;;;;;;20.17;46.46;99195.44;5039626;28;20732;-75
2020/12/05 11:21:03;;;;;;;1.23;1.13;;;;;;;20.22;46.58;99200.22;5072733;28;20273;-75
2020/12/05 11:23:29;;;;;;;1.23;1.20;;;;;;;20.25;46.60;99205.22;5072628;28;20180;-69
2020/12/05 11:25:56;;;;;;;1.17;1.17;;;;;;;20.29;46.71;99200.19;5057009;28;20188;-68
2020/12/05 11:28:22;;;;;;;0.93;0.93;;;;;;;20.32;46.42;99192.41;5062066;28;20781;-68
2020/12/05 11:30:48;;;;;;;1.53;1.33;;;;;;;20.37;46.67;99202.66;5073485;28;20250;-68
2020/12/05 11:33:14;;;;;;;1.30;1.20;;;;;;;20.39;46.61;99204.13;5073426;28;20180;-69
2020/12/05 11:35:40;;;;;;;1.27;1.17;;;;;;;20.43;46.61;99213.53;5054602;28;20242;-69
2020/12/05 11:38:06;;;;;;;1.23;1.13;;;;;;;20.46;46.65;99204.09;5047194;28;20199;-69